sensor_id;sensor_type;location;lat;lon;timestamp;temperature;humidity
37412;DHT22;23278;52.110;6.050;2023-06-10T00:00:40;19.20;66.40
37412;DHT22;23278;52.110;6.050;2023-06-10T00:03:10;19.10;66.00
37412;DHT22;23278;52.110;6.050;2023-06-10T00:05:36;19.10;66.10
37412;DHT22;23278;52.110;6.050;2023-06-10T00:08:07;19.10;66.20
37412;DHT22;23278;52.110;6.050;2023-06-10T00:10:37;19.10;66.60
37412;DHT22;23278;52.110;6.050;2023-06-10T00:13:05;19.00;66.50
37412;DHT22;23278;52.110;6.050;2023-06-10T00:15:34;19.00;66.90
37412;DHT22;23278;52.110;6.050;2023-06-10T00:18:01;18.90;67.00
37412;DHT22;23278;52.110;6.050;2023-06-10T00:20:29;18.90;67.10
37412;DHT22;23278;52.110;6.050;2023-06-10T00:22:57;18.90;67.40
37412;DHT22;23278;52.110;6.050;2023-06-10T00:25:24;18.80;67.50
37412;DHT22;23278;52.110;6.050;2023-06-10T00:27:51;18.80;67.50
37412;DHT22;23278;52.110;6.050;2023-06-10T00:30:17;18.70;67.50
37412;DHT22;23278;52.110;6.050;2023-06-10T00:32:43;18.60;67.60
37412;DHT22;23278;52.110;6.050;2023-06-10T00:35:09;18.60;67.60
37412;DHT22;23278;52.110;6.050;2023-06-10T00:37:35;18.60;67.90
37412;DHT22;23278;52.110;6.050;2023-06-10T00:40:03;18.50;68.20
37412;DHT22;23278;52.110;6.050;2023-06-10T00:42:31;18.50;68.40
37412;DHT22;23278;52.110;6.050;2023-06-10T00:44:57;18.50;68.70
37412;DHT22;23278;52.110;6.050;2023-06-10T00:47:23;18.40;68.70
37412;DHT22;23278;52.110;6.050;2023-06-10T00:49:49;18.40;69.00
37412;DHT22;23278;52.110;6.050;2023-06-10T00:52:17;18.40;69.10
37412;DHT22;23278;52.110;6.050;2023-06-10T00:54:44;18.30;69.10
37412;DHT22;23278;52.110;6.050;2023-06-10T00:57:10;18.30;69.20
37412;DHT22;23278;52.110;6.050;2023-06-10T00:59:42;18.20;69.30
37412;DHT22;23278;52.110;6.050;2023-06-10T01:02:09;18.20;69.50
37412;DHT22;23278;52.110;6.050;2023-06-10T01:04:35;18.10;69.50
37412;DHT22;23278;52.110;6.050;2023-06-10T01:14:59;18.00;69.80
37412;DHT22;23278;52.110;6.050;2023-06-10T01:17:26;18.00;69.80
37412;DHT22;23278;52.110;6.050;2023-06-10T01:19:56;18.00;69.90
37412;DHT22;23278;52.110;6.050;2023-06-10T01:22:26;17.90;70.00
37412;DHT22;23278;52.110;6.050;2023-06-10T01:24:58;17.90;70.10
37412;DHT22;23278;52.110;6.050;2023-06-10T01:27:29;17.80;70.50
37412;DHT22;23278;52.110;6.050;2023-06-10T01:30:04;17.80;70.90
37412;DHT22;23278;52.110;6.050;2023-06-10T01:32:50;17.70;70.90
37412;DHT22;23278;52.110;6.050;2023-06-10T01:35:17;17.60;71.30
37412;DHT22;23278;52.110;6.050;2023-06-10T01:37:45;17.60;71.70
37412;DHT22;23278;52.110;6.050;2023-06-10T01:40:13;17.50;72.10
37412;DHT22;23278;52.110;6.050;2023-06-10T01:42:39;17.50;72.60
37412;DHT22;23278;52.110;6.050;2023-06-10T01:45:06;17.40;72.80
37412;DHT22;23278;52.110;6.050;2023-06-10T01:47:32;17.40;73.20
37412;DHT22;23278;52.110;6.050;2023-06-10T01:49:59;17.30;73.20
37412;DHT22;23278;52.110;6.050;2023-06-10T01:52:25;17.30;73.30
37412;DHT22;23278;52.110;6.050;2023-06-10T01:54:51;17.20;73.60
37412;DHT22;23278;52.110;6.050;2023-06-10T01:57:17;17.20;73.80
37412;DHT22;23278;52.110;6.050;2023-06-10T01:59:43;17.20;74.00
37412;DHT22;23278;52.110;6.050;2023-06-10T02:02:10;17.10;74.20
37412;DHT22;23278;52.110;6.050;2023-06-10T02:04:37;17.10;74.40
37412;DHT22;23278;52.110;6.050;2023-06-10T02:07:04;17.00;74.40
37412;DHT22;23278;52.110;6.050;2023-06-10T02:09:31;17.00;74.50
37412;DHT22;23278;52.110;6.050;2023-06-10T02:12:02;17.00;74.70
37412;DHT22;23278;52.110;6.050;2023-06-10T02:14:27;16.90;74.70
37412;DHT22;23278;52.110;6.050;2023-06-10T02:16:53;16.90;75.00
37412;DHT22;23278;52.110;6.050;2023-06-10T02:19:22;16.90;75.20
37412;DHT22;23278;52.110;6.050;2023-06-10T02:21:49;16.80;75.20
37412;DHT22;23278;52.110;6.050;2023-06-10T02:24:14;16.80;75.40
37412;DHT22;23278;52.110;6.050;2023-06-10T02:26:40;16.80;75.70
37412;DHT22;23278;52.110;6.050;2023-06-10T02:29:06;16.80;75.70
37412;DHT22;23278;52.110;6.050;2023-06-10T02:31:32;16.70;75.90
37412;DHT22;23278;52.110;6.050;2023-06-10T02:34:02;16.70;76.00
37412;DHT22;23278;52.110;6.050;2023-06-10T02:36:29;16.60;76.40
37412;DHT22;23278;52.110;6.050;2023-06-10T02:38:55;16.60;76.70
37412;DHT22;23278;52.110;6.050;2023-06-10T02:41:22;16.50;76.70
37412;DHT22;23278;52.110;6.050;2023-06-10T02:43:49;16.50;77.00
37412;DHT22;23278;52.110;6.050;2023-06-10T02:46:15;16.50;77.00
37412;DHT22;23278;52.110;6.050;2023-06-10T02:48:46;16.40;77.00
37412;DHT22;23278;52.110;6.050;2023-06-10T02:51:17;16.40;77.20
37412;DHT22;23278;52.110;6.050;2023-06-10T02:53:46;16.40;77.40
37412;DHT22;23278;52.110;6.050;2023-06-10T02:56:16;16.40;77.40
37412;DHT22;23278;52.110;6.050;2023-06-10T02:58:42;16.40;77.50
37412;DHT22;23278;52.110;6.050;2023-06-10T03:01:09;16.30;77.80
37412;DHT22;23278;52.110;6.050;2023-06-10T03:03:56;16.30;77.70
37412;DHT22;23278;52.110;6.050;2023-06-10T03:06:22;16.20;77.90
37412;DHT22;23278;52.110;6.050;2023-06-10T03:08:50;16.20;78.20
37412;DHT22;23278;52.110;6.050;2023-06-10T03:11:18;16.10;78.30
37412;DHT22;23278;52.110;6.050;2023-06-10T03:13:46;16.10;78.50
37412;DHT22;23278;52.110;6.050;2023-06-10T03:16:15;16.10;78.50
37412;DHT22;23278;52.110;6.050;2023-06-10T03:18:41;16.00;78.70
37412;DHT22;23278;52.110;6.050;2023-06-10T03:21:08;16.10;78.80
37412;DHT22;23278;52.110;6.050;2023-06-10T03:23:35;16.10;79.00
37412;DHT22;23278;52.110;6.050;2023-06-10T03:26:02;16.00;79.00
37412;DHT22;23278;52.110;6.050;2023-06-10T03:28:31;16.00;79.20
37412;DHT22;23278;52.110;6.050;2023-06-10T03:30:57;16.00;79.60
37412;DHT22;23278;52.110;6.050;2023-06-10T03:33:25;16.00;79.50
37412;DHT22;23278;52.110;6.050;2023-06-10T03:35:51;16.00;79.50
37412;DHT22;23278;52.110;6.050;2023-06-10T03:38:18;16.00;79.70
37412;DHT22;23278;52.110;6.050;2023-06-10T03:40:44;16.00;79.80
37412;DHT22;23278;52.110;6.050;2023-06-10T03:43:10;16.00;79.90
37412;DHT22;23278;52.110;6.050;2023-06-10T03:45:36;16.00;79.90
37412;DHT22;23278;52.110;6.050;2023-06-10T03:48:02;16.00;79.90
37412;DHT22;23278;52.110;6.050;2023-06-10T03:50:38;16.00;80.00
37412;DHT22;23278;52.110;6.050;2023-06-10T03:53:03;16.00;80.10
37412;DHT22;23278;52.110;6.050;2023-06-10T03:55:30;16.00;80.30
37412;DHT22;23278;52.110;6.050;2023-06-10T03:57:59;16.00;80.40
37412;DHT22;23278;52.110;6.050;2023-06-10T04:00:25;16.00;80.60
37412;DHT22;23278;52.110;6.050;2023-06-10T04:02:51;16.00;80.90
37412;DHT22;23278;52.110;6.050;2023-06-10T04:05:28;16.00;81.00
37412;DHT22;23278;52.110;6.050;2023-06-10T04:07:54;16.00;81.10
37412;DHT22;23278;52.110;6.050;2023-06-10T04:10:20;16.00;81.10
37412;DHT22;23278;52.110;6.050;2023-06-10T04:12:46;16.00;81.10
37412;DHT22;23278;52.110;6.050;2023-06-10T04:15:12;16.00;81.30
37412;DHT22;23278;52.110;6.050;2023-06-10T04:17:39;16.00;81.30
37412;DHT22;23278;52.110;6.050;2023-06-10T04:20:06;16.00;82.10
37412;DHT22;23278;52.110;6.050;2023-06-10T04:22:34;16.10;81.70
37412;DHT22;23278;52.110;6.050;2023-06-10T04:25:02;16.10;81.80
37412;DHT22;23278;52.110;6.050;2023-06-10T04:27:29;16.10;81.80
37412;DHT22;23278;52.110;6.050;2023-06-10T04:29:56;16.10;81.80
37412;DHT22;23278;52.110;6.050;2023-06-10T04:32:22;16.20;82.00
37412;DHT22;23278;52.110;6.050;2023-06-10T04:34:48;16.20;82.00
37412;DHT22;23278;52.110;6.050;2023-06-10T04:37:15;16.20;82.00
37412;DHT22;23278;52.110;6.050;2023-06-10T04:39:41;16.20;82.10
37412;DHT22;23278;52.110;6.050;2023-06-10T04:42:07;16.30;82.30
37412;DHT22;23278;52.110;6.050;2023-06-10T04:44:34;16.30;82.30
37412;DHT22;23278;52.110;6.050;2023-06-10T04:47:00;16.30;82.40
37412;DHT22;23278;52.110;6.050;2023-06-10T04:49:26;16.40;82.60
37412;DHT22;23278;52.110;6.050;2023-06-10T04:51:52;16.40;82.70
37412;DHT22;23278;52.110;6.050;2023-06-10T04:54:18;16.50;83.00
37412;DHT22;23278;52.110;6.050;2023-06-10T04:56:44;16.50;83.00
37412;DHT22;23278;52.110;6.050;2023-06-10T04:59:10;16.50;83.10
37412;DHT22;23278;52.110;6.050;2023-06-10T05:01:36;16.60;83.20
37412;DHT22;23278;52.110;6.050;2023-06-10T05:04:02;16.70;83.30
37412;DHT22;23278;52.110;6.050;2023-06-10T05:06:30;16.70;83.20
37412;DHT22;23278;52.110;6.050;2023-06-10T05:08:55;16.70;83.20
37412;DHT22;23278;52.110;6.050;2023-06-10T05:11:21;16.80;83.30
37412;DHT22;23278;52.110;6.050;2023-06-10T05:13:47;16.90;83.40
37412;DHT22;23278;52.110;6.050;2023-06-10T05:16:14;17.00;83.50
37412;DHT22;23278;52.110;6.050;2023-06-10T05:18:41;17.00;83.80
37412;DHT22;23278;52.110;6.050;2023-06-10T05:21:06;17.10;84.40
37412;DHT22;23278;52.110;6.050;2023-06-10T05:23:33;17.20;84.20
37412;DHT22;23278;52.110;6.050;2023-06-10T05:25:59;17.20;84.90
37412;DHT22;23278;52.110;6.050;2023-06-10T05:28:25;17.30;84.90
37412;DHT22;23278;52.110;6.050;2023-06-10T05:30:51;17.40;84.80
37412;DHT22;23278;52.110;6.050;2023-06-10T05:33:17;17.50;85.10
37412;DHT22;23278;52.110;6.050;2023-06-10T05:35:43;17.60;85.50
37412;DHT22;23278;52.110;6.050;2023-06-10T05:38:09;17.70;85.50
37412;DHT22;23278;52.110;6.050;2023-06-10T05:40:34;17.70;85.40
37412;DHT22;23278;52.110;6.050;2023-06-10T05:43:00;17.80;85.80
37412;DHT22;23278;52.110;6.050;2023-06-10T05:45:27;17.80;85.60
37412;DHT22;23278;52.110;6.050;2023-06-10T05:47:53;17.90;85.70
37412;DHT22;23278;52.110;6.050;2023-06-10T05:50:19;18.00;85.60
37412;DHT22;23278;52.110;6.050;2023-06-10T05:52:44;18.00;85.90
37412;DHT22;23278;52.110;6.050;2023-06-10T05:55:10;18.10;85.60
37412;DHT22;23278;52.110;6.050;2023-06-10T05:57:36;18.20;85.60
37412;DHT22;23278;52.110;6.050;2023-06-10T06:00:03;18.20;85.80
37412;DHT22;23278;52.110;6.050;2023-06-10T06:02:40;18.30;85.60
37412;DHT22;23278;52.110;6.050;2023-06-10T06:05:06;18.40;85.50
37412;DHT22;23278;52.110;6.050;2023-06-10T06:07:32;18.40;85.10
37412;DHT22;23278;52.110;6.050;2023-06-10T06:09:58;18.50;84.90
37412;DHT22;23278;52.110;6.050;2023-06-10T06:12:24;18.60;84.80
37412;DHT22;23278;52.110;6.050;2023-06-10T06:14:50;18.60;84.60
37412;DHT22;23278;52.110;6.050;2023-06-10T06:17:16;18.70;84.30
37412;DHT22;23278;52.110;6.050;2023-06-10T06:19:42;18.80;84.10
37412;DHT22;23278;52.110;6.050;2023-06-10T06:22:09;18.80;84.00
37412;DHT22;23278;52.110;6.050;2023-06-10T06:24:34;18.90;83.80
37412;DHT22;23278;52.110;6.050;2023-06-10T06:27:00;19.00;83.60
37412;DHT22;23278;52.110;6.050;2023-06-10T06:29:26;19.10;83.30
37412;DHT22;23278;52.110;6.050;2023-06-10T06:31:52;19.10;83.00
37412;DHT22;23278;52.110;6.050;2023-06-10T06:34:18;19.20;82.60
37412;DHT22;23278;52.110;6.050;2023-06-10T06:36:44;19.30;82.40
37412;DHT22;23278;52.110;6.050;2023-06-10T06:39:10;19.40;82.10
37412;DHT22;23278;52.110;6.050;2023-06-10T06:41:36;19.40;81.80
37412;DHT22;23278;52.110;6.050;2023-06-10T06:44:01;19.50;81.00
37412;DHT22;23278;52.110;6.050;2023-06-10T06:46:36;19.60;80.90
37412;DHT22;23278;52.110;6.050;2023-06-10T06:49:02;19.60;81.10
37412;DHT22;23278;52.110;6.050;2023-06-10T06:51:28;19.70;80.20
37412;DHT22;23278;52.110;6.050;2023-06-10T06:53:54;19.80;80.00
37412;DHT22;23278;52.110;6.050;2023-06-10T06:56:24;19.90;79.90
37412;DHT22;23278;52.110;6.050;2023-06-10T06:58:50;19.90;79.40
37412;DHT22;23278;52.110;6.050;2023-06-10T07:01:19;20.00;79.20
37412;DHT22;23278;52.110;6.050;2023-06-10T07:03:45;20.10;78.90
37412;DHT22;23278;52.110;6.050;2023-06-10T07:06:12;20.20;78.40
37412;DHT22;23278;52.110;6.050;2023-06-10T07:08:37;20.20;78.40
37412;DHT22;23278;52.110;6.050;2023-06-10T07:11:03;20.30;77.60
37412;DHT22;23278;52.110;6.050;2023-06-10T07:13:29;20.40;77.20
37412;DHT22;23278;52.110;6.050;2023-06-10T07:15:55;20.40;76.80
37412;DHT22;23278;52.110;6.050;2023-06-10T07:18:21;20.50;76.70
37412;DHT22;23278;52.110;6.050;2023-06-10T07:20:47;20.60;76.70
37412;DHT22;23278;52.110;6.050;2023-06-10T07:23:13;20.60;76.30
37412;DHT22;23278;52.110;6.050;2023-06-10T07:25:41;20.70;75.80
37412;DHT22;23278;52.110;6.050;2023-06-10T07:28:07;20.80;75.60
37412;DHT22;23278;52.110;6.050;2023-06-10T07:30:33;20.90;75.60
37412;DHT22;23278;52.110;6.050;2023-06-10T07:32:59;21.10;75.50
37412;DHT22;23278;52.110;6.050;2023-06-10T07:35:27;21.20;75.10
37412;DHT22;23278;52.110;6.050;2023-06-10T07:38:09;21.30;74.60
37412;DHT22;23278;52.110;6.050;2023-06-10T07:40:35;21.40;74.00
37412;DHT22;23278;52.110;6.050;2023-06-10T07:43:01;21.50;73.50
37412;DHT22;23278;52.110;6.050;2023-06-10T07:45:26;21.60;73.00
37412;DHT22;23278;52.110;6.050;2023-06-10T07:47:52;21.70;72.80
37412;DHT22;23278;52.110;6.050;2023-06-10T07:50:18;21.70;72.70
37412;DHT22;23278;52.110;6.050;2023-06-10T07:52:44;21.80;72.30
37412;DHT22;23278;52.110;6.050;2023-06-10T07:55:10;21.90;71.70
37412;DHT22;23278;52.110;6.050;2023-06-10T07:57:36;22.00;71.50
37412;DHT22;23278;52.110;6.050;2023-06-10T08:00:05;22.10;71.00
37412;DHT22;23278;52.110;6.050;2023-06-10T08:02:38;22.30;70.80
37412;DHT22;23278;52.110;6.050;2023-06-10T08:05:05;22.40;69.90
37412;DHT22;23278;52.110;6.050;2023-06-10T08:07:30;22.40;69.70
37412;DHT22;23278;52.110;6.050;2023-06-10T08:09:57;22.50;69.60
37412;DHT22;23278;52.110;6.050;2023-06-10T08:12:23;22.60;69.10
37412;DHT22;23278;52.110;6.050;2023-06-10T08:14:49;22.80;68.80
37412;DHT22;23278;52.110;6.050;2023-06-10T08:17:15;22.90;68.40
37412;DHT22;23278;52.110;6.050;2023-06-10T08:19:41;23.00;68.30
37412;DHT22;23278;52.110;6.050;2023-06-10T08:22:07;23.10;67.10
37412;DHT22;23278;52.110;6.050;2023-06-10T08:24:33;23.20;66.90
37412;DHT22;23278;52.110;6.050;2023-06-10T08:26:58;23.40;66.60
37412;DHT22;23278;52.110;6.050;2023-06-10T08:29:28;23.60;66.30
37412;DHT22;23278;52.110;6.050;2023-06-10T08:31:55;23.70;65.60
37412;DHT22;23278;52.110;6.050;2023-06-10T08:34:21;23.80;65.00
37412;DHT22;23278;52.110;6.050;2023-06-10T08:36:47;24.00;64.40
37412;DHT22;23278;52.110;6.050;2023-06-10T08:39:15;24.10;64.00
37412;DHT22;23278;52.110;6.050;2023-06-10T08:41:43;24.20;63.50
37412;DHT22;23278;52.110;6.050;2023-06-10T08:44:21;24.40;62.60
37412;DHT22;23278;52.110;6.050;2023-06-10T08:46:48;24.40;61.80
37412;DHT22;23278;52.110;6.050;2023-06-10T08:49:18;24.60;59.80
37412;DHT22;23278;52.110;6.050;2023-06-10T08:51:50;24.70;59.70
37412;DHT22;23278;52.110;6.050;2023-06-10T08:54:20;24.90;60.00
37412;DHT22;23278;52.110;6.050;2023-06-10T08:56:49;25.00;60.00
37412;DHT22;23278;52.110;6.050;2023-06-10T08:59:17;25.20;59.50
37412;DHT22;23278;52.110;6.050;2023-06-10T09:01:47;25.40;59.20
37412;DHT22;23278;52.110;6.050;2023-06-10T09:04:13;25.50;57.90
37412;DHT22;23278;52.110;6.050;2023-06-10T09:06:40;25.60;57.30
37412;DHT22;23278;52.110;6.050;2023-06-10T09:09:07;25.60;57.30
37412;DHT22;23278;52.110;6.050;2023-06-10T09:11:33;25.80;56.50
37412;DHT22;23278;52.110;6.050;2023-06-10T09:13:59;25.90;55.80
37412;DHT22;23278;52.110;6.050;2023-06-10T09:16:25;26.00;55.10
37412;DHT22;23278;52.110;6.050;2023-06-10T09:18:51;26.00;54.60
37412;DHT22;23278;52.110;6.050;2023-06-10T09:21:22;26.20;54.40
37412;DHT22;23278;52.110;6.050;2023-06-10T09:23:48;26.40;54.40
37412;DHT22;23278;52.110;6.050;2023-06-10T09:26:15;26.50;54.50
37412;DHT22;23278;52.110;6.050;2023-06-10T09:28:45;26.60;54.00
37412;DHT22;23278;52.110;6.050;2023-06-10T09:31:14;26.70;53.70
37412;DHT22;23278;52.110;6.050;2023-06-10T09:33:45;26.80;53.70
37412;DHT22;23278;52.110;6.050;2023-06-10T09:36:11;27.00;53.80
37412;DHT22;23278;52.110;6.050;2023-06-10T09:38:37;27.20;53.40
37412;DHT22;23278;52.110;6.050;2023-06-10T09:41:03;27.50;52.70
37412;DHT22;23278;52.110;6.050;2023-06-10T09:43:43;28.00;51.40
37412;DHT22;23278;52.110;6.050;2023-06-10T09:46:17;28.60;50.70
37412;DHT22;23278;52.110;6.050;2023-06-10T09:48:45;29.20;49.20
37412;DHT22;23278;52.110;6.050;2023-06-10T09:51:15;29.70;48.50
37412;DHT22;23278;52.110;6.050;2023-06-10T09:53:42;30.30;48.10
37412;DHT22;23278;52.110;6.050;2023-06-10T09:56:08;30.80;46.80
37412;DHT22;23278;52.110;6.050;2023-06-10T09:58:38;31.40;45.80
37412;DHT22;23278;52.110;6.050;2023-06-10T10:01:05;31.90;44.60
37412;DHT22;23278;52.110;6.050;2023-06-10T10:03:32;32.40;43.80
37412;DHT22;23278;52.110;6.050;2023-06-10T10:05:59;32.80;42.60
37412;DHT22;23278;52.110;6.050;2023-06-10T10:08:26;33.40;42.20
37412;DHT22;23278;52.110;6.050;2023-06-10T10:10:52;33.90;40.30
37412;DHT22;23278;52.110;6.050;2023-06-10T10:13:18;34.30;40.30
37412;DHT22;23278;52.110;6.050;2023-06-10T10:15:45;34.90;39.30
37412;DHT22;23278;52.110;6.050;2023-06-10T10:18:14;35.40;38.40
37412;DHT22;23278;52.110;6.050;2023-06-10T10:20:47;35.90;38.00
37412;DHT22;23278;52.110;6.050;2023-06-10T10:23:24;36.50;37.30
37412;DHT22;23278;52.110;6.050;2023-06-10T10:25:55;37.00;36.70
37412;DHT22;23278;52.110;6.050;2023-06-10T10:28:24;37.70;36.30
37412;DHT22;23278;52.110;6.050;2023-06-10T10:30:54;38.20;34.70
37412;DHT22;23278;52.110;6.050;2023-06-10T10:33:36;38.60;34.40
37412;DHT22;23278;52.110;6.050;2023-06-10T10:36:06;39.00;33.50
37412;DHT22;23278;52.110;6.050;2023-06-10T10:38:33;39.20;33.00
37412;DHT22;23278;52.110;6.050;2023-06-10T10:41:00;39.50;32.20
37412;DHT22;23278;52.110;6.050;2023-06-10T10:43:28;39.80;32.10
37412;DHT22;23278;52.110;6.050;2023-06-10T10:45:59;40.30;32.30
37412;DHT22;23278;52.110;6.050;2023-06-10T10:48:27;40.80;32.10
37412;DHT22;23278;52.110;6.050;2023-06-10T10:51:09;41.40;32.10
37412;DHT22;23278;52.110;6.050;2023-06-10T10:53:38;42.10;31.90
37412;DHT22;23278;52.110;6.050;2023-06-10T10:56:06;42.50;31.70
37412;DHT22;23278;52.110;6.050;2023-06-10T10:58:36;42.60;31.30
37412;DHT22;23278;52.110;6.050;2023-06-10T11:01:17;42.90;31.30
37412;DHT22;23278;52.110;6.050;2023-06-10T11:03:45;43.40;31.00
37412;DHT22;23278;52.110;6.050;2023-06-10T11:06:17;44.30;31.00
37412;DHT22;23278;52.110;6.050;2023-06-10T11:11:25;45.30;30.00
37412;DHT22;23278;52.110;6.050;2023-06-10T11:16:41;45.30;29.70
37412;DHT22;23278;52.110;6.050;2023-06-10T11:19:07;45.60;29.60
37412;DHT22;23278;52.110;6.050;2023-06-10T11:22:01;45.80;29.70
37412;DHT22;23278;52.110;6.050;2023-06-10T11:24:29;46.20;30.00
37412;DHT22;23278;52.110;6.050;2023-06-10T11:26:59;46.80;29.20
37412;DHT22;23278;52.110;6.050;2023-06-10T11:29:39;47.10;29.00
37412;DHT22;23278;52.110;6.050;2023-06-10T11:32:20;47.30;28.60
37412;DHT22;23278;52.110;6.050;2023-06-10T11:34:52;47.50;28.70
37412;DHT22;23278;52.110;6.050;2023-06-10T11:37:18;47.80;28.70
37412;DHT22;23278;52.110;6.050;2023-06-10T11:39:44;48.30;28.90
37412;DHT22;23278;52.110;6.050;2023-06-10T11:42:11;48.60;28.50
37412;DHT22;23278;52.110;6.050;2023-06-10T11:44:37;48.90;28.50
37412;DHT22;23278;52.110;6.050;2023-06-10T11:47:03;49.00;28.00
37412;DHT22;23278;52.110;6.050;2023-06-10T11:49:29;49.00;27.90
37412;DHT22;23278;52.110;6.050;2023-06-10T11:51:55;49.40;28.20
37412;DHT22;23278;52.110;6.050;2023-06-10T11:54:22;49.90;27.90
37412;DHT22;23278;52.110;6.050;2023-06-10T11:56:48;49.90;28.00
37412;DHT22;23278;52.110;6.050;2023-06-10T11:59:38;50.30;27.90
37412;DHT22;23278;52.110;6.050;2023-06-10T12:02:06;50.70;27.60
37412;DHT22;23278;52.110;6.050;2023-06-10T12:04:40;51.00;27.40
37412;DHT22;23278;52.110;6.050;2023-06-10T12:10:06;51.00;26.90
37412;DHT22;23278;52.110;6.050;2023-06-10T12:12:34;51.00;26.90
37412;DHT22;23278;52.110;6.050;2023-06-10T12:15:02;51.30;26.90
37412;DHT22;23278;52.110;6.050;2023-06-10T12:20:01;52.10;26.70
37412;DHT22;23278;52.110;6.050;2023-06-10T12:22:35;52.40;26.80
37412;DHT22;23278;52.110;6.050;2023-06-10T12:25:03;52.90;26.70
37412;DHT22;23278;52.110;6.050;2023-06-10T12:27:31;53.20;26.40
37412;DHT22;23278;52.110;6.050;2023-06-10T12:29:58;53.40;26.40
37412;DHT22;23278;52.110;6.050;2023-06-10T12:32:41;53.60;26.30
37412;DHT22;23278;52.110;6.050;2023-06-10T12:35:08;53.90;26.40
37412;DHT22;23278;52.110;6.050;2023-06-10T12:37:34;53.70;26.10
37412;DHT22;23278;52.110;6.050;2023-06-10T12:40:02;53.50;26.70
37412;DHT22;23278;52.110;6.050;2023-06-10T12:42:29;53.50;26.30
37412;DHT22;23278;52.110;6.050;2023-06-10T12:44:58;53.70;26.40
37412;DHT22;23278;52.110;6.050;2023-06-10T12:50:07;54.20;26.30
37412;DHT22;23278;52.110;6.050;2023-06-10T12:52:34;54.00;26.00
37412;DHT22;23278;52.110;6.050;2023-06-10T12:55:00;53.80;26.10
37412;DHT22;23278;52.110;6.050;2023-06-10T12:57:26;53.70;26.10
37412;DHT22;23278;52.110;6.050;2023-06-10T12:59:52;53.80;26.20
37412;DHT22;23278;52.110;6.050;2023-06-10T13:02:19;54.20;26.10
37412;DHT22;23278;52.110;6.050;2023-06-10T13:04:48;55.00;26.20
37412;DHT22;23278;52.110;6.050;2023-06-10T13:07:15;55.20;26.10
37412;DHT22;23278;52.110;6.050;2023-06-10T13:09:41;55.20;26.00
37412;DHT22;23278;52.110;6.050;2023-06-10T13:12:07;55.10;26.20
37412;DHT22;23278;52.110;6.050;2023-06-10T13:14:39;54.90;26.10
37412;DHT22;23278;52.110;6.050;2023-06-10T13:17:05;54.90;26.10
37412;DHT22;23278;52.110;6.050;2023-06-10T13:19:33;55.00;26.20
37412;DHT22;23278;52.110;6.050;2023-06-10T13:22:05;55.00;26.20
37412;DHT22;23278;52.110;6.050;2023-06-10T13:24:35;54.80;26.20
37412;DHT22;23278;52.110;6.050;2023-06-10T13:27:04;54.90;26.30
37412;DHT22;23278;52.110;6.050;2023-06-10T13:29:30;54.90;26.20
37412;DHT22;23278;52.110;6.050;2023-06-10T13:31:56;55.00;26.40
37412;DHT22;23278;52.110;6.050;2023-06-10T13:34:22;55.20;26.10
37412;DHT22;23278;52.110;6.050;2023-06-10T13:36:48;54.90;26.10
37412;DHT22;23278;52.110;6.050;2023-06-10T13:39:14;54.90;26.20
37412;DHT22;23278;52.110;6.050;2023-06-10T13:41:40;54.90;26.00
37412;DHT22;23278;52.110;6.050;2023-06-10T13:44:07;54.80;26.20
37412;DHT22;23278;52.110;6.050;2023-06-10T13:46:33;55.50;26.20
37412;DHT22;23278;52.110;6.050;2023-06-10T13:48:59;56.00;26.30
37412;DHT22;23278;52.110;6.050;2023-06-10T13:51:25;55.90;26.00
37412;DHT22;23278;52.110;6.050;2023-06-10T13:53:51;56.10;26.00
37412;DHT22;23278;52.110;6.050;2023-06-10T13:56:18;56.00;26.00
37412;DHT22;23278;52.110;6.050;2023-06-10T13:58:44;56.00;25.80
37412;DHT22;23278;52.110;6.050;2023-06-10T14:01:10;56.10;26.00
37412;DHT22;23278;52.110;6.050;2023-06-10T14:03:37;56.30;26.00
37412;DHT22;23278;52.110;6.050;2023-06-10T14:06:02;55.90;26.10
37412;DHT22;23278;52.110;6.050;2023-06-10T14:08:31;55.90;26.00
37412;DHT22;23278;52.110;6.050;2023-06-10T14:10:57;55.90;26.00
37412;DHT22;23278;52.110;6.050;2023-06-10T14:13:33;56.00;25.80
37412;DHT22;23278;52.110;6.050;2023-06-10T14:15:59;55.90;25.60
37412;DHT22;23278;52.110;6.050;2023-06-10T14:18:28;55.20;25.70
37412;DHT22;23278;52.110;6.050;2023-06-10T14:20:54;55.30;25.70
37412;DHT22;23278;52.110;6.050;2023-06-10T14:23:20;55.40;25.80
37412;DHT22;23278;52.110;6.050;2023-06-10T14:25:45;56.00;26.00
37412;DHT22;23278;52.110;6.050;2023-06-10T14:28:11;56.40;25.90
37412;DHT22;23278;52.110;6.050;2023-06-10T14:30:46;56.40;26.00
37412;DHT22;23278;52.110;6.050;2023-06-10T14:33:12;56.20;25.70
37412;DHT22;23278;52.110;6.050;2023-06-10T14:35:38;55.80;25.80
37412;DHT22;23278;52.110;6.050;2023-06-10T14:38:04;55.40;25.90
37412;DHT22;23278;52.110;6.050;2023-06-10T14:40:32;55.30;25.70
37412;DHT22;23278;52.110;6.050;2023-06-10T14:42:57;55.30;26.40
37412;DHT22;23278;52.110;6.050;2023-06-10T14:45:23;55.90;25.80
37412;DHT22;23278;52.110;6.050;2023-06-10T14:47:51;56.30;25.70
37412;DHT22;23278;52.110;6.050;2023-06-10T14:50:17;56.50;25.60
37412;DHT22;23278;52.110;6.050;2023-06-10T14:52:42;56.50;25.60
37412;DHT22;23278;52.110;6.050;2023-06-10T14:55:08;56.30;25.70
37412;DHT22;23278;52.110;6.050;2023-06-10T14:57:38;56.30;25.70
37412;DHT22;23278;52.110;6.050;2023-06-10T15:00:04;56.40;25.80
37412;DHT22;23278;52.110;6.050;2023-06-10T15:02:30;56.30;25.90
37412;DHT22;23278;52.110;6.050;2023-06-10T15:04:56;56.10;25.80
37412;DHT22;23278;52.110;6.050;2023-06-10T15:07:22;55.80;25.70
37412;DHT22;23278;52.110;6.050;2023-06-10T15:09:47;55.60;25.80
37412;DHT22;23278;52.110;6.050;2023-06-10T15:12:13;55.30;25.60
37412;DHT22;23278;52.110;6.050;2023-06-10T15:14:39;55.30;25.70
37412;DHT22;23278;52.110;6.050;2023-06-10T15:17:05;55.50;26.00
37412;DHT22;23278;52.110;6.050;2023-06-10T15:19:31;55.80;26.00
37412;DHT22;23278;52.110;6.050;2023-06-10T15:21:57;55.90;25.90
37412;DHT22;23278;52.110;6.050;2023-06-10T15:24:23;55.20;25.70
37412;DHT22;23278;52.110;6.050;2023-06-10T15:26:48;54.90;25.80
37412;DHT22;23278;52.110;6.050;2023-06-10T15:29:15;54.70;25.90
37412;DHT22;23278;52.110;6.050;2023-06-10T15:31:40;55.00;26.00
37412;DHT22;23278;52.110;6.050;2023-06-10T15:34:06;55.20;25.80
37412;DHT22;23278;52.110;6.050;2023-06-10T15:36:34;55.30;25.80
37412;DHT22;23278;52.110;6.050;2023-06-10T15:39:03;55.20;25.60
37412;DHT22;23278;52.110;6.050;2023-06-10T15:41:31;54.60;25.70
37412;DHT22;23278;52.110;6.050;2023-06-10T15:43:57;54.30;25.70
37412;DHT22;23278;52.110;6.050;2023-06-10T15:46:26;53.80;25.70
37412;DHT22;23278;52.110;6.050;2023-06-10T15:48:52;53.70;25.90
37412;DHT22;23278;52.110;6.050;2023-06-10T15:51:21;53.90;25.80
37412;DHT22;23278;52.110;6.050;2023-06-10T15:53:47;53.80;26.00